sensor_id;sensor_type;location;lat;lon;timestamp;temperature;humidity
5786;DHT22;2919;48.630;9.000;2022-11-15T00:01:43;6.40;99.90
5786;DHT22;2919;48.630;9.000;2022-11-15T00:04:09;6.50;99.90
5786;DHT22;2919;48.630;9.000;2022-11-15T00:06:35;6.50;99.90
5786;DHT22;2919;48.630;9.000;2022-11-15T00:09:01;6.50;99.90
5786;DHT22;2919;48.630;9.000;2022-11-15T00:11:27;6.50;99.90
5786;DHT22;2919;48.630;9.000;2022-11-15T00:13:56;6.60;99.90
5786;DHT22;2919;48.630;9.000;2022-11-15T00:16:23;6.50;99.90
5786;DHT22;2919;48.630;9.000;2022-11-15T00:18:49;6.50;99.90
5786;DHT22;2919;48.630;9.000;2022-11-15T00:21:15;6.40;99.90
5786;DHT22;2919;48.630;9.000;2022-11-15T00:23:41;6.30;99.90
5786;DHT22;2919;48.630;9.000;2022-11-15T00:26:08;6.20;99.90
5786;DHT22;2919;48.630;9.000;2022-11-15T00:28:36;6.10;99.90
5786;DHT22;2919;48.630;9.000;2022-11-15T00:31:06;6.10;99.90
5786;DHT22;2919;48.630;9.000;2022-11-15T00:33:33;6.00;99.90
5786;DHT22;2919;48.630;9.000;2022-11-15T00:36:07;6.00;99.90
5786;DHT22;2919;48.630;9.000;2022-11-15T00:38:35;5.90;99.90
5786;DHT22;2919;48.630;9.000;2022-11-15T00:41:03;5.80;99.90
5786;DHT22;2919;48.630;9.000;2022-11-15T00:43:29;5.80;99.90
5786;DHT22;2919;48.630;9.000;2022-11-15T00:45:54;5.80;99.90
5786;DHT22;2919;48.630;9.000;2022-11-15T00:48:20;5.70;99.90
5786;DHT22;2919;48.630;9.000;2022-11-15T00:50:46;5.70;99.90
5786;DHT22;2919;48.630;9.000;2022-11-15T00:53:12;5.60;99.90
5786;DHT22;2919;48.630;9.000;2022-11-15T00:55:37;5.60;99.90
5786;DHT22;2919;48.630;9.000;2022-11-15T00:58:03;5.50;99.90
5786;DHT22;2919;48.630;9.000;2022-11-15T01:00:29;5.50;99.90
5786;DHT22;2919;48.630;9.000;2022-11-15T01:02:54;5.40;99.90
5786;DHT22;2919;48.630;9.000;2022-11-15T01:05:20;5.40;99.90
5786;DHT22;2919;48.630;9.000;2022-11-15T01:07:46;5.40;99.90
5786;DHT22;2919;48.630;9.000;2022-11-15T01:10:11;5.40;99.90
5786;DHT22;2919;48.630;9.000;2022-11-15T01:12:37;5.40;99.90
5786;DHT22;2919;48.630;9.000;2022-11-15T01:15:04;5.40;99.90
5786;DHT22;2919;48.630;9.000;2022-11-15T01:17:30;5.30;99.90
5786;DHT22;2919;48.630;9.000;2022-11-15T01:19:56;5.30;99.90
5786;DHT22;2919;48.630;9.000;2022-11-15T01:22:22;5.30;99.90
5786;DHT22;2919;48.630;9.000;2022-11-15T01:24:49;5.30;99.90
5786;DHT22;2919;48.630;9.000;2022-11-15T01:27:15;5.20;99.90
5786;DHT22;2919;48.630;9.000;2022-11-15T01:29:41;5.20;99.90
5786;DHT22;2919;48.630;9.000;2022-11-15T01:32:06;5.20;99.90
5786;DHT22;2919;48.630;9.000;2022-11-15T01:34:32;5.20;99.90
5786;DHT22;2919;48.630;9.000;2022-11-15T01:36:57;5.20;99.90
5786;DHT22;2919;48.630;9.000;2022-11-15T01:39:24;5.20;99.90
5786;DHT22;2919;48.630;9.000;2022-11-15T01:41:49;5.20;99.90
5786;DHT22;2919;48.630;9.000;2022-11-15T01:47:23;5.20;99.90
5786;DHT22;2919;48.630;9.000;2022-11-15T01:50:00;5.10;99.90
5786;DHT22;2919;48.630;9.000;2022-11-15T01:52:28;5.20;99.90
5786;DHT22;2919;48.630;9.000;2022-11-15T01:57:38;5.20;99.90
5786;DHT22;2919;48.630;9.000;2022-11-15T02:00:05;5.20;99.90
5786;DHT22;2919;48.630;9.000;2022-11-15T02:02:32;5.30;99.90
5786;DHT22;2919;48.630;9.000;2022-11-15T02:04:58;5.30;99.90
5786;DHT22;2919;48.630;9.000;2022-11-15T02:07:24;5.30;99.90
5786;DHT22;2919;48.630;9.000;2022-11-15T02:09:50;5.30;99.90
5786;DHT22;2919;48.630;9.000;2022-11-15T02:12:19;5.40;99.90
5786;DHT22;2919;48.630;9.000;2022-11-15T02:14:49;5.40;99.90
5786;DHT22;2919;48.630;9.000;2022-11-15T02:26:08;5.40;99.90
5786;DHT22;2919;48.630;9.000;2022-11-15T02:31:40;5.50;99.90
5786;DHT22;2919;48.630;9.000;2022-11-15T02:42:14;5.50;99.90
5786;DHT22;2919;48.630;9.000;2022-11-15T02:45:04;5.50;99.90
5786;DHT22;2919;48.630;9.000;2022-11-15T02:47:34;5.40;99.90
5786;DHT22;2919;48.630;9.000;2022-11-15T02:50:08;5.40;99.90
5786;DHT22;2919;48.630;9.000;2022-11-15T02:52:34;5.40;99.90
5786;DHT22;2919;48.630;9.000;2022-11-15T02:55:00;5.40;99.90
5786;DHT22;2919;48.630;9.000;2022-11-15T02:57:48;5.40;99.90
5786;DHT22;2919;48.630;9.000;2022-11-15T03:00:18;5.40;99.90
5786;DHT22;2919;48.630;9.000;2022-11-15T03:05:27;5.30;99.90
5786;DHT22;2919;48.630;9.000;2022-11-15T03:11:09;5.30;99.90
5786;DHT22;2919;48.630;9.000;2022-11-15T03:18:43;5.30;99.90
5786;DHT22;2919;48.630;9.000;2022-11-15T03:21:11;5.30;99.90
5786;DHT22;2919;48.630;9.000;2022-11-15T03:23:39;5.30;99.90
5786;DHT22;2919;48.630;9.000;2022-11-15T03:26:07;5.30;99.90
5786;DHT22;2919;48.630;9.000;2022-11-15T03:28:58;5.30;99.90
5786;DHT22;2919;48.630;9.000;2022-11-15T03:31:26;5.40;99.90
5786;DHT22;2919;48.630;9.000;2022-11-15T03:34:29;5.40;99.90
5786;DHT22;2919;48.630;9.000;2022-11-15T03:36:57;5.40;99.90
5786;DHT22;2919;48.630;9.000;2022-11-15T03:39:23;5.40;99.90
5786;DHT22;2919;48.630;9.000;2022-11-15T03:42:17;5.40;99.90
5786;DHT22;2919;48.630;9.000;2022-11-15T03:47:36;5.40;99.90
5786;DHT22;2919;48.630;9.000;2022-11-15T03:50:16;5.50;99.90
5786;DHT22;2919;48.630;9.000;2022-11-15T03:52:45;5.50;99.90
5786;DHT22;2919;48.630;9.000;2022-11-15T03:55:13;5.50;99.90
5786;DHT22;2919;48.630;9.000;2022-11-15T03:57:39;5.50;99.90
5786;DHT22;2919;48.630;9.000;2022-11-15T04:00:05;5.40;99.90
5786;DHT22;2919;48.630;9.000;2022-11-15T04:02:31;5.40;99.90
5786;DHT22;2919;48.630;9.000;2022-11-15T04:04:57;5.50;99.90
5786;DHT22;2919;48.630;9.000;2022-11-15T04:07:22;5.40;99.90
5786;DHT22;2919;48.630;9.000;2022-11-15T04:09:48;5.40;99.90
5786;DHT22;2919;48.630;9.000;2022-11-15T04:12:34;5.40;99.90
5786;DHT22;2919;48.630;9.000;2022-11-15T04:15:09;5.40;99.90
5786;DHT22;2919;48.630;9.000;2022-11-15T04:17:41;5.40;99.90
5786;DHT22;2919;48.630;9.000;2022-11-15T04:20:17;5.40;99.90
5786;DHT22;2919;48.630;9.000;2022-11-15T04:23:04;5.40;99.90
5786;DHT22;2919;48.630;9.000;2022-11-15T04:25:53;5.40;99.90
5786;DHT22;2919;48.630;9.000;2022-11-15T04:28:20;5.40;99.90
5786;DHT22;2919;48.630;9.000;2022-11-15T04:30:45;5.40;99.90
5786;DHT22;2919;48.630;9.000;2022-11-15T04:33:11;5.50;99.90
5786;DHT22;2919;48.630;9.000;2022-11-15T04:35:37;5.50;99.90
5786;DHT22;2919;48.630;9.000;2022-11-15T04:38:04;5.50;99.90
5786;DHT22;2919;48.630;9.000;2022-11-15T04:40:30;5.50;99.90
5786;DHT22;2919;48.630;9.000;2022-11-15T04:42:56;5.60;99.90
5786;DHT22;2919;48.630;9.000;2022-11-15T04:45:22;5.60;99.90
5786;DHT22;2919;48.630;9.000;2022-11-15T04:47:48;5.60;99.90
5786;DHT22;2919;48.630;9.000;2022-11-15T04:50:14;5.60;99.90
5786;DHT22;2919;48.630;9.000;2022-11-15T04:52:50;5.60;99.90
5786;DHT22;2919;48.630;9.000;2022-11-15T04:55:16;5.60;99.90
5786;DHT22;2919;48.630;9.000;2022-11-15T04:57:42;5.60;99.90
5786;DHT22;2919;48.630;9.000;2022-11-15T05:00:10;5.60;99.90
5786;DHT22;2919;48.630;9.000;2022-11-15T05:02:36;5.50;99.90
5786;DHT22;2919;48.630;9.000;2022-11-15T05:05:20;5.40;99.90
5786;DHT22;2919;48.630;9.000;2022-11-15T05:07:46;5.40;99.90
5786;DHT22;2919;48.630;9.000;2022-11-15T05:10:12;5.40;99.90
5786;DHT22;2919;48.630;9.000;2022-11-15T05:12:37;5.30;99.90
5786;DHT22;2919;48.630;9.000;2022-11-15T05:15:03;5.30;99.90
5786;DHT22;2919;48.630;9.000;2022-11-15T05:17:29;5.30;99.90
5786;DHT22;2919;48.630;9.000;2022-11-15T05:19:55;5.40;99.90
5786;DHT22;2919;48.630;9.000;2022-11-15T05:22:21;5.40;99.90
5786;DHT22;2919;48.630;9.000;2022-11-15T05:24:47;5.40;99.90
5786;DHT22;2919;48.630;9.000;2022-11-15T05:27:12;5.40;99.90
5786;DHT22;2919;48.630;9.000;2022-11-15T05:29:38;5.40;99.90
5786;DHT22;2919;48.630;9.000;2022-11-15T05:32:05;5.40;99.90
5786;DHT22;2919;48.630;9.000;2022-11-15T05:34:31;5.30;99.90
5786;DHT22;2919;48.630;9.000;2022-11-15T05:36:58;5.30;99.90
5786;DHT22;2919;48.630;9.000;2022-11-15T05:39:24;5.20;99.90
5786;DHT22;2919;48.630;9.000;2022-11-15T05:41:59;5.20;99.90
5786;DHT22;2919;48.630;9.000;2022-11-15T05:44:26;5.20;99.90
5786;DHT22;2919;48.630;9.000;2022-11-15T05:46:54;5.20;99.90
5786;DHT22;2919;48.630;9.000;2022-11-15T05:49:23;5.10;99.90
5786;DHT22;2919;48.630;9.000;2022-11-15T05:51:51;5.10;99.90
5786;DHT22;2919;48.630;9.000;2022-11-15T05:54:20;5.10;99.90
5786;DHT22;2919;48.630;9.000;2022-11-15T05:56:46;5.00;99.90
5786;DHT22;2919;48.630;9.000;2022-11-15T05:59:12;5.00;99.90
5786;DHT22;2919;48.630;9.000;2022-11-15T06:01:38;5.00;99.90
5786;DHT22;2919;48.630;9.000;2022-11-15T06:04:04;4.90;99.90
5786;DHT22;2919;48.630;9.000;2022-11-15T06:06:30;4.90;99.90
5786;DHT22;2919;48.630;9.000;2022-11-15T06:08:56;4.90;99.90
5786;DHT22;2919;48.630;9.000;2022-11-15T06:11:21;4.90;99.90
5786;DHT22;2919;48.630;9.000;2022-11-15T06:13:47;4.90;99.90
5786;DHT22;2919;48.630;9.000;2022-11-15T06:16:13;4.90;99.90
5786;DHT22;2919;48.630;9.000;2022-11-15T06:18:39;4.90;99.90
5786;DHT22;2919;48.630;9.000;2022-11-15T06:21:04;4.90;99.90
5786;DHT22;2919;48.630;9.000;2022-11-15T06:23:34;4.90;99.90
5786;DHT22;2919;48.630;9.000;2022-11-15T06:26:01;4.90;99.90
5786;DHT22;2919;48.630;9.000;2022-11-15T06:28:31;4.90;99.90
5786;DHT22;2919;48.630;9.000;2022-11-15T06:31:03;4.90;99.90
5786;DHT22;2919;48.630;9.000;2022-11-15T06:33:28;5.00;99.90
5786;DHT22;2919;48.630;9.000;2022-11-15T06:35:54;4.90;99.90
5786;DHT22;2919;48.630;9.000;2022-11-15T06:38:20;4.90;99.90
5786;DHT22;2919;48.630;9.000;2022-11-15T06:40:45;4.90;99.90
5786;DHT22;2919;48.630;9.000;2022-11-15T06:43:11;5.00;99.90
5786;DHT22;2919;48.630;9.000;2022-11-15T06:45:37;5.00;99.90
5786;DHT22;2919;48.630;9.000;2022-11-15T06:48:02;5.10;99.90
5786;DHT22;2919;48.630;9.000;2022-11-15T06:50:28;5.20;99.90
5786;DHT22;2919;48.630;9.000;2022-11-15T06:52:53;5.30;99.90
5786;DHT22;2919;48.630;9.000;2022-11-15T06:55:20;5.40;99.90
5786;DHT22;2919;48.630;9.000;2022-11-15T06:57:50;5.40;99.90
5786;DHT22;2919;48.630;9.000;2022-11-15T07:00:17;5.40;99.90
5786;DHT22;2919;48.630;9.000;2022-11-15T07:02:43;5.40;99.90
5786;DHT22;2919;48.630;9.000;2022-11-15T07:05:09;5.40;99.90
5786;DHT22;2919;48.630;9.000;2022-11-15T07:07:35;5.40;99.90
5786;DHT22;2919;48.630;9.000;2022-11-15T07:10:01;5.40;99.90
5786;DHT22;2919;48.630;9.000;2022-11-15T07:12:26;5.50;99.90
5786;DHT22;2919;48.630;9.000;2022-11-15T07:14:52;5.50;99.90
5786;DHT22;2919;48.630;9.000;2022-11-15T07:17:17;5.50;99.90
5786;DHT22;2919;48.630;9.000;2022-11-15T07:19:43;5.50;99.90
5786;DHT22;2919;48.630;9.000;2022-11-15T07:22:09;5.50;99.90
5786;DHT22;2919;48.630;9.000;2022-11-15T07:24:34;5.60;99.90
5786;DHT22;2919;48.630;9.000;2022-11-15T07:27:00;5.70;99.90
5786;DHT22;2919;48.630;9.000;2022-11-15T07:29:25;5.80;99.90
5786;DHT22;2919;48.630;9.000;2022-11-15T07:31:51;6.00;99.90
5786;DHT22;2919;48.630;9.000;2022-11-15T07:34:16;6.10;99.90
5786;DHT22;2919;48.630;9.000;2022-11-15T07:36:42;6.30;99.90
5786;DHT22;2919;48.630;9.000;2022-11-15T07:39:08;6.50;99.90
5786;DHT22;2919;48.630;9.000;2022-11-15T07:41:33;6.70;99.90
5786;DHT22;2919;48.630;9.000;2022-11-15T07:44:00;6.90;99.90
5786;DHT22;2919;48.630;9.000;2022-11-15T07:46:26;7.10;99.90
5786;DHT22;2919;48.630;9.000;2022-11-15T07:48:52;7.30;99.90
5786;DHT22;2919;48.630;9.000;2022-11-15T07:51:18;7.50;99.90
5786;DHT22;2919;48.630;9.000;2022-11-15T07:53:44;7.60;99.90
5786;DHT22;2919;48.630;9.000;2022-11-15T07:56:10;7.80;99.90
5786;DHT22;2919;48.630;9.000;2022-11-15T07:58:35;7.90;99.90
5786;DHT22;2919;48.630;9.000;2022-11-15T08:01:05;8.00;99.90
5786;DHT22;2919;48.630;9.000;2022-11-15T08:03:31;8.10;99.90
5786;DHT22;2919;48.630;9.000;2022-11-15T08:05:57;8.20;99.90
5786;DHT22;2919;48.630;9.000;2022-11-15T08:08:23;8.20;99.90
5786;DHT22;2919;48.630;9.000;2022-11-15T08:10:48;8.30;99.90
5786;DHT22;2919;48.630;9.000;2022-11-15T08:13:15;8.30;99.90
5786;DHT22;2919;48.630;9.000;2022-11-15T08:15:41;8.40;99.90
5786;DHT22;2919;48.630;9.000;2022-11-15T08:18:12;8.40;99.90
5786;DHT22;2919;48.630;9.000;2022-11-15T08:20:37;8.50;99.90
5786;DHT22;2919;48.630;9.000;2022-11-15T08:23:04;8.60;99.90
5786;DHT22;2919;48.630;9.000;2022-11-15T08:25:32;8.70;99.90
5786;DHT22;2919;48.630;9.000;2022-11-15T08:28:00;8.80;99.90
5786;DHT22;2919;48.630;9.000;2022-11-15T08:30:26;9.00;99.90
5786;DHT22;2919;48.630;9.000;2022-11-15T08:32:53;9.00;99.90
5786;DHT22;2919;48.630;9.000;2022-11-15T08:35:20;9.20;99.90
5786;DHT22;2919;48.630;9.000;2022-11-15T08:37:46;9.30;99.90
5786;DHT22;2919;48.630;9.000;2022-11-15T08:40:12;9.30;99.90
5786;DHT22;2919;48.630;9.000;2022-11-15T08:42:39;9.40;99.90
5786;DHT22;2919;48.630;9.000;2022-11-15T08:45:05;9.50;99.90
5786;DHT22;2919;48.630;9.000;2022-11-15T08:47:31;9.60;99.90
5786;DHT22;2919;48.630;9.000;2022-11-15T08:49:57;9.80;99.90
5786;DHT22;2919;48.630;9.000;2022-11-15T08:52:22;9.90;99.90
5786;DHT22;2919;48.630;9.000;2022-11-15T08:54:48;10.00;99.90
5786;DHT22;2919;48.630;9.000;2022-11-15T08:57:14;10.10;99.90
5786;DHT22;2919;48.630;9.000;2022-11-15T08:59:40;10.10;99.90
5786;DHT22;2919;48.630;9.000;2022-11-15T09:02:05;10.10;99.90
5786;DHT22;2919;48.630;9.000;2022-11-15T09:04:31;10.20;99.90
5786;DHT22;2919;48.630;9.000;2022-11-15T09:06:57;10.20;99.90
5786;DHT22;2919;48.630;9.000;2022-11-15T09:09:23;10.40;99.90
5786;DHT22;2919;48.630;9.000;2022-11-15T09:11:48;10.40;99.90
5786;DHT22;2919;48.630;9.000;2022-11-15T09:14:16;10.40;99.90
5786;DHT22;2919;48.630;9.000;2022-11-15T09:16:41;10.50;99.90
5786;DHT22;2919;48.630;9.000;2022-11-15T09:19:07;10.60;99.90
5786;DHT22;2919;48.630;9.000;2022-11-15T09:21:33;10.80;99.90
5786;DHT22;2919;48.630;9.000;2022-11-15T09:23:58;10.80;99.90
5786;DHT22;2919;48.630;9.000;2022-11-15T09:26:24;10.90;99.90
5786;DHT22;2919;48.630;9.000;2022-11-15T09:28:50;11.00;99.90
5786;DHT22;2919;48.630;9.000;2022-11-15T09:31:16;11.00;99.90
5786;DHT22;2919;48.630;9.000;2022-11-15T09:33:45;11.20;99.90
5786;DHT22;2919;48.630;9.000;2022-11-15T09:36:11;11.30;99.90
5786;DHT22;2919;48.630;9.000;2022-11-15T09:38:37;11.30;99.90
5786;DHT22;2919;48.630;9.000;2022-11-15T09:46:35;11.50;99.90
5786;DHT22;2919;48.630;9.000;2022-11-15T09:49:04;11.50;99.90
5786;DHT22;2919;48.630;9.000;2022-11-15T09:51:36;11.60;99.90
5786;DHT22;2919;48.630;9.000;2022-11-15T09:57:02;11.70;99.90
5786;DHT22;2919;48.630;9.000;2022-11-15T10:04:54;11.70;99.90
5786;DHT22;2919;48.630;9.000;2022-11-15T10:10:13;11.80;99.90
5786;DHT22;2919;48.630;9.000;2022-11-15T10:12:45;11.90;99.90
5786;DHT22;2919;48.630;9.000;2022-11-15T10:15:15;12.00;99.90
5786;DHT22;2919;48.630;9.000;2022-11-15T10:18:19;12.00;99.90
5786;DHT22;2919;48.630;9.000;2022-11-15T10:20:59;12.00;99.90
5786;DHT22;2919;48.630;9.000;2022-11-15T10:23:27;12.10;99.90
5786;DHT22;2919;48.630;9.000;2022-11-15T10:26:01;12.20;99.90
5786;DHT22;2919;48.630;9.000;2022-11-15T10:28:28;12.20;99.90
5786;DHT22;2919;48.630;9.000;2022-11-15T10:30:56;12.20;99.90
5786;DHT22;2919;48.630;9.000;2022-11-15T10:33:35;12.30;99.90
5786;DHT22;2919;48.630;9.000;2022-11-15T10:43:42;12.40;99.90
5786;DHT22;2919;48.630;9.000;2022-11-15T10:46:20;12.30;99.90
5786;DHT22;2919;48.630;9.000;2022-11-15T10:48:46;12.40;99.90
5786;DHT22;2919;48.630;9.000;2022-11-15T10:51:24;12.30;99.90
5786;DHT22;2919;48.630;9.000;2022-11-15T10:53:56;12.30;99.90
5786;DHT22;2919;48.630;9.000;2022-11-15T10:56:25;12.30;99.90
5786;DHT22;2919;48.630;9.000;2022-11-15T10:58:56;12.30;99.90
5786;DHT22;2919;48.630;9.000;2022-11-15T11:01:27;12.20;99.90
5786;DHT22;2919;48.630;9.000;2022-11-15T11:06:25;12.10;99.90
5786;DHT22;2919;48.630;9.000;2022-11-15T11:09:20;12.10;99.90
5786;DHT22;2919;48.630;9.000;2022-11-15T11:11:48;12.10;99.90
5786;DHT22;2919;48.630;9.000;2022-11-15T11:14:21;12.20;99.90
5786;DHT22;2919;48.630;9.000;2022-11-15T11:16:52;12.30;99.90
5786;DHT22;2919;48.630;9.000;2022-11-15T11:33:24;12.50;99.90
5786;DHT22;2919;48.630;9.000;2022-11-15T11:44:01;12.60;99.90
5786;DHT22;2919;48.630;9.000;2022-11-15T11:47:01;12.60;99.90
5786;DHT22;2919;48.630;9.000;2022-11-15T11:52:18;12.60;99.90
5786;DHT22;2919;48.630;9.000;2022-11-15T12:00:03;12.80;99.90
5786;DHT22;2919;48.630;9.000;2022-11-15T12:02:39;12.90;99.90
5786;DHT22;2919;48.630;9.000;2022-11-15T12:05:18;12.80;99.90
5786;DHT22;2919;48.630;9.000;2022-11-15T12:07:46;12.90;99.90
5786;DHT22;2919;48.630;9.000;2022-11-15T12:10:28;12.80;99.90
5786;DHT22;2919;48.630;9.000;2022-11-15T12:13:09;12.70;99.90
5786;DHT22;2919;48.630;9.000;2022-11-15T12:15:53;12.70;99.90
5786;DHT22;2919;48.630;9.000;2022-11-15T12:18:22;12.60;99.90
5786;DHT22;2919;48.630;9.000;2022-11-15T12:21:13;12.50;99.90
5786;DHT22;2919;48.630;9.000;2022-11-15T12:23:46;12.50;99.90
5786;DHT22;2919;48.630;9.000;2022-11-15T12:26:24;12.40;99.90
5786;DHT22;2919;48.630;9.000;2022-11-15T12:29:00;12.50;99.90
5786;DHT22;2919;48.630;9.000;2022-11-15T12:31:39;12.40;99.90
5786;DHT22;2919;48.630;9.000;2022-11-15T12:36:48;12.50;99.90
5786;DHT22;2919;48.630;9.000;2022-11-15T12:39:15;12.40;99.90
5786;DHT22;2919;48.630;9.000;2022-11-15T13:02:42;12.70;99.90
5786;DHT22;2919;48.630;9.000;2022-11-15T13:10:32;12.70;99.90
5786;DHT22;2919;48.630;9.000;2022-11-15T13:13:03;12.70;99.90
5786;DHT22;2919;48.630;9.000;2022-11-15T13:20:50;12.60;99.90
5786;DHT22;2919;48.630;9.000;2022-11-15T13:23:16;12.60;99.90
5786;DHT22;2919;48.630;9.000;2022-11-15T13:28:45;12.50;99.90
5786;DHT22;2919;48.630;9.000;2022-11-15T13:31:24;12.50;99.90
5786;DHT22;2919;48.630;9.000;2022-11-15T13:33:51;12.50;99.90
5786;DHT22;2919;48.630;9.000;2022-11-15T13:36:28;12.50;99.90
5786;DHT22;2919;48.630;9.000;2022-11-15T13:39:11;12.50;99.90
5786;DHT22;2919;48.630;9.000;2022-11-15T13:41:46;12.50;99.90
5786;DHT22;2919;48.630;9.000;2022-11-15T13:44:29;12.50;99.90
5786;DHT22;2919;48.630;9.000;2022-11-15T13:47:13;12.40;99.90
5786;DHT22;2919;48.630;9.000;2022-11-15T13:49:40;12.30;99.90
5786;DHT22;2919;48.630;9.000;2022-11-15T13:52:12;12.20;99.90
5786;DHT22;2919;48.630;9.000;2022-11-15T13:57:21;12.00;99.90
5786;DHT22;2919;48.630;9.000;2022-11-15T13:59:53;12.00;99.90
5786;DHT22;2919;48.630;9.000;2022-11-15T14:02:26;11.90;99.90
5786;DHT22;2919;48.630;9.000;2022-11-15T14:04:56;11.90;99.90
5786;DHT22;2919;48.630;9.000;2022-11-15T14:07:25;11.90;99.90
5786;DHT22;2919;48.630;9.000;2022-11-15T14:09:51;11.90;99.90
5786;DHT22;2919;48.630;9.000;2022-11-15T14:12:32;12.00;99.90
5786;DHT22;2919;48.630;9.000;2022-11-15T14:15:01;12.10;99.90
5786;DHT22;2919;48.630;9.000;2022-11-15T14:19:56;12.20;99.90
5786;DHT22;2919;48.630;9.000;2022-11-15T14:22:27;12.30;99.90
5786;DHT22;2919;48.630;9.000;2022-11-15T14:25:16;12.30;99.90
5786;DHT22;2919;48.630;9.000;2022-11-15T14:27:43;12.20;99.90
5786;DHT22;2919;48.630;9.000;2022-11-15T14:30:16;12.20;99.90
5786;DHT22;2919;48.630;9.000;2022-11-15T14:32:49;12.20;99.90
5786;DHT22;2919;48.630;9.000;2022-11-15T14:35:20;12.20;99.90
5786;DHT22;2919;48.630;9.000;2022-11-15T14:37:46;12.20;99.90
5786;DHT22;2919;48.630;9.000;2022-11-15T14:40:18;12.20;99.90
5786;DHT22;2919;48.630;9.000;2022-11-15T14:42:45;12.10;99.90
5786;DHT22;2919;48.630;9.000;2022-11-15T14:47:40;12.00;99.90
5786;DHT22;2919;48.630;9.000;2022-11-15T14:50:06;12.00;99.90
5786;DHT22;2919;48.630;9.000;2022-11-15T14:52:32;11.90;99.90
5786;DHT22;2919;48.630;9.000;2022-11-15T14:55:03;11.90;99.90
5786;DHT22;2919;48.630;9.000;2022-11-15T14:57:34;11.80;99.90
5786;DHT22;2919;48.630;9.000;2022-11-15T15:00:00;11.80;99.90
5786;DHT22;2919;48.630;9.000;2022-11-15T15:02:26;11.70;99.90
5786;DHT22;2919;48.630;9.000;2022-11-15T15:04:53;11.70;99.90
5786;DHT22;2919;48.630;9.000;2022-11-15T15:07:19;11.60;99.90
5786;DHT22;2919;48.630;9.000;2022-11-15T15:09:45;11.60;99.90
5786;DHT22;2919;48.630;9.000;2022-11-15T15:12:16;11.50;99.90
5786;DHT22;2919;48.630;9.000;2022-11-15T15:14:42;11.40;99.90
5786;DHT22;2919;48.630;9.000;2022-11-15T15:17:08;11.40;99.90
5786;DHT22;2919;48.630;9.000;2022-11-15T15:19:33;11.40;99.90
5786;DHT22;2919;48.630;9.000;2022-11-15T15:21:59;11.40;99.90
5786;DHT22;2919;48.630;9.000;2022-11-15T15:24:24;11.30;99.90
5786;DHT22;2919;48.630;9.000;2022-11-15T15:26:50;11.20;99.90
5786;DHT22;2919;48.630;9.000;2022-11-15T15:29:15;11.20;99.90
5786;DHT22;2919;48.630;9.000;2022-11-15T15:31:41;11.20;99.90
5786;DHT22;2919;48.630;9.000;2022-11-15T15:34:07;11.20;99.90
5786;DHT22;2919;48.630;9.000;2022-11-15T15:36:32;11.10;99.90
5786;DHT22;2919;48.630;9.000;2022-11-15T15:38:58;11.10;99.90
5786;DHT22;2919;48.630;9.000;2022-11-15T15:41:23;11.10;99.90
5786;DHT22;2919;48.630;9.000;2022-11-15T15:43:49;11.10;99.90
5786;DHT22;2919;48.630;9.000;2022-11-15T15:46:18;11.10;99.90
5786;DHT22;2919;48.630;9.000;2022-11-15T15:48:44;11.10;99.90
5786;DHT22;2919;48.630;9.000;2022-11-15T15:51:10;11.10;99.90
5786;DHT22;2919;48.630;9.000;2022-11-15T15:53:37;11.10;99.90
5786;DHT22;2919;48.630;9.000;2022-11-15T15:56:03;11.00;99.90
5786;DHT22;2919;48.630;9.000;2022-11-15T15:58:28;11.00;99.90
5786;DHT22;2919;48.630;9.000;2022-11-15T16:00:54;11.00;99.90
5786;DHT22;2919;48.630;9.000;2022-11-15T16:03:20;10.90;99.90
5786;DHT22;2919;48.630;9.000;2022-11-15T16:05:45;10.90;99.90
5786;DHT22;2919;48.630;9.000;2022-11-15T16:08:19;10.80;99.90
5786;DHT22;2919;48.630;9.000;2022-11-15T16:10:45;10.80;99.90
5786;DHT22;2919;48.630;9.000;2022-11-15T16:13:10;10.70;99.90
5786;DHT22;2919;48.630;9.000;2022-11-15T16:15:36;10.60;99.90
5786;DHT22;2919;48.630;9.000;2022-11-15T16:18:03;10.60;99.90
5786;DHT22;2919;48.630;9.000;2022-11-15T16:20:38;10.60;99.90
5786;DHT22;2919;48.630;9.000;2022-11-15T16:23:09;10.60;99.90
5786;DHT22;2919;48.630;9.000;2022-11-15T16:28:20;10.40;99.90
5786;DHT22;2919;48.630;9.000;2022-11-15T16:30:46;10.30;99.90
5786;DHT22;2919;48.630;9.000;2022-11-15T16:33:12;10.30;99.90
5786;DHT22;2919;48.630;9.000;2022-11-15T16:35:37;10.30;99.90
5786;DHT22;2919;48.630;9.000;2022-11-15T16:38:03;10.30;99.90
5786;DHT22;2919;48.630;9.000;2022-11-15T16:40:31;10.20;99.90
5786;DHT22;2919;48.630;9.000;2022-11-15T16:42:58;10.20;99.90
5786;DHT22;2919;48.630;9.000;2022-11-15T16:45:25;10.20;99.90
5786;DHT22;2919;48.630;9.000;2022-11-15T16:47:55;10.20;99.90
5786;DHT22;2919;48.630;9.000;2022-11-15T16:50:23;10.20;99.90
5786;DHT22;2919;48.630;9.000;2022-11-15T16:52:53;10.10;99.90
5786;DHT22;2919;48.630;9.000;2022-11-15T16:55:20;10.10;99.90
5786;DHT22;2919;48.630;9.000;2022-11-15T16:57:46;10.10;99.90
5786;DHT22;2919;48.630;9.000;2022-11-15T17:00:12;10.10;99.90
5786;DHT22;2919;48.630;9.000;2022-11-15T17:02:42;10.10;99.90
5786;DHT22;2919;48.630;9.000;2022-11-15T17:05:09;10.10;99.90
5786;DHT22;2919;48.630;9.000;2022-11-15T17:07:34;10.10;99.90
5786;DHT22;2919;48.630;9.000;2022-11-15T17:10:00;10.10;99.90
5786;DHT22;2919;48.630;9.000;2022-11-15T17:12:26;10.00;99.90
5786;DHT22;2919;48.630;9.000;2022-11-15T17:14:51;10.00;99.90
5786;DHT22;2919;48.630;9.000;2022-11-15T17:17:17;10.10;99.90
5786;DHT22;2919;48.630;9.000;2022-11-15T17:19:42;10.10;99.90
5786;DHT22;2919;48.630;9.000;2022-11-15T17:22:08;10.10;99.90
5786;DHT22;2919;48.630;9.000;2022-11-15T17:24:33;10.00;99.90
5786;DHT22;2919;48.630;9.000;2022-11-15T17:26:59;10.10;99.90
5786;DHT22;2919;48.630;9.000;2022-11-15T17:29:25;10.10;99.90
5786;DHT22;2919;48.630;9.000;2022-11-15T17:31:50;10.00;99.90
5786;DHT22;2919;48.630;9.000;2022-11-15T17:34:16;10.00;99.90
5786;DHT22;2919;48.630;9.000;2022-11-15T17:36:41;10.00;99.90
5786;DHT22;2919;48.630;9.000;2022-11-15T17:39:07;10.00;99.90
5786;DHT22;2919;48.630;9.000;2022-11-15T17:41:32;10.00;99.90
5786;DHT22;2919;48.630;9.000;2022-11-15T17:43:59;10.00;99.90
5786;DHT22;2919;48.630;9.000;2022-11-15T17:46:25;10.00;99.90
5786;DHT22;2919;48.630;9.000;2022-11-15T17:48:51;10.00;99.90
5786;DHT22;2919;48.630;9.000;2022-11-15T17:51:17;9.90;99.90
5786;DHT22;2919;48.630;9.000;2022-11-15T17:53:47;9.90;99.90
5786;DHT22;2919;48.630;9.000;2022-11-15T17:56:21;9.90;99.90
5786;DHT22;2919;48.630;9.000;2022-11-15T17:58:51;9.90;99.90
5786;DHT22;2919;48.630;9.000;2022-11-15T18:01:26;9.90;99.90
5786;DHT22;2919;48.630;9.000;2022-11-15T18:03:53;9.90;99.90
5786;DHT22;2919;48.630;9.000;2022-11-15T18:06:20;9.90;99.90
5786;DHT22;2919;48.630;9.000;2022-11-15T18:08:48;9.90;99.90
5786;DHT22;2919;48.630;9.000;2022-11-15T18:11:18;9.80;99.90
5786;DHT22;2919;48.630;9.000;2022-11-15T18:13:49;9.90;99.90
5786;DHT22;2919;48.630;9.000;2022-11-15T18:16:17;9.80;99.90
5786;DHT22;2919;48.630;9.000;2022-11-15T18:18:43;9.80;99.90
5786;DHT22;2919;48.630;9.000;2022-11-15T18:21:22;9.80;99.90
5786;DHT22;2919;48.630;9.000;2022-11-15T18:23:51;9.80;99.90
5786;DHT22;2919;48.630;9.000;2022-11-15T18:26:17;9.80;99.90
5786;DHT22;2919;48.630;9.000;2022-11-15T18:28:47;9.80;99.90
5786;DHT22;2919;48.630;9.000;2022-11-15T18:31:15;9.70;99.90
5786;DHT22;2919;48.630;9.000;2022-11-15T18:33:42;9.80;99.90
5786;DHT22;2919;48.630;9.000;2022-11-15T18:36:19;9.80;99.90
5786;DHT22;2919;48.630;9.000;2022-11-15T18:38:45;9.70;99.90
5786;DHT22;2919;48.630;9.000;2022-11-15T18:41:16;9.80;99.90
5786;DHT22;2919;48.630;9.000;2022-11-15T18:43:45;9.70;99.90